Hordafor III — LLVC — position and weather

sailwx.info

Track history (hours):
 
Tides and Currents Weather Stations Pressure Air Temp Water Temp Dewpoint Dewpoint Depression Visibility Wind Speed Wind Dir Waves Ship Positions

Hordafor III

Last reported at 2015-May-23 06:33 UTC. Time now 2015-May-23 07:16 UTC.
Position N 58°20' E 006°02'.

Length 50 m.

Type: Ship (hazmat cat A). MMSI: 258044000.

Date/timePositionNaut miles runAvg speedWind from/ knotsBaromVisibWave heightAir tempDewpointWater temp
2015-May-23 06:33N 58°20' E 006°02'9 9.1
2015-May-23 05:33N 58°14' E 006°15'9 8.9
2015-May-23 04:32N 58°08' E 006°28'1 0.0
2015-May-21 10:27N 58°07' E 006°30'910.1
2015-May-21 09:33N 58°13' E 006°17'1010.2
2015-May-21 08:33N 58°20' E 006°03'1010.0
2015-May-21 07:33N 58°26' E 005°49'30 9.9
2015-May-21 04:33N 58°52' E 005°22'10 9.9
2015-May-21 03:33N 59°02' E 005°19'1010.0
2015-May-21 02:33N 59°12' E 005°20'1110.6
2015-May-21 01:33N 59°23' E 005°18'  
Track history (hours):
 
Tides and Currents Weather Stations Pressure Air Temp Water Temp Dewpoint Dewpoint Depression Visibility Wind Speed Wind Dir Waves Ship Positions

Hordafor III

Last reported at 2015-May-23 06:33 UTC. Time now 2015-May-23 07:16 UTC.
Position N 58°20' E 006°02'.

Length 50 m.

Type: Ship (hazmat cat A). MMSI: 258044000.

Date/timePositionNaut miles runAvg speedWind from/ knotsBaromVisibWave heightAir tempDewpointWater temp
2015-May-23 06:33N 58°20' E 006°02'9 9.1
2015-May-23 05:33N 58°14' E 006°15'9 8.9
2015-May-23 04:32N 58°08' E 006°28'1 0.0
2015-May-21 10:27N 58°07' E 006°30'910.1
2015-May-21 09:33N 58°13' E 006°17'1010.2
2015-May-21 08:33N 58°20' E 006°03'1010.0
2015-May-21 07:33N 58°26' E 005°49'30 9.9
2015-May-21 04:33N 58°52' E 005°22'10 9.9
2015-May-21 03:33N 59°02' E 005°19'1010.0
2015-May-21 02:33N 59°12' E 005°20'1110.6
2015-May-21 01:33N 59°23' E 005°18'  

Dump ship's entire track history